sensor_id;sensor_type;location;lat;lon;timestamp;pressure;altitude;pressure_sealevel;temperature;humidity
43364;BME280;40636;52.424;-1.948;2022-11-18T00:01:20;97381.59;;;8.07;100.00
43364;BME280;40636;52.424;-1.948;2022-11-18T00:03:48;97390.59;;;8.08;100.00
43364;BME280;40636;52.424;-1.948;2022-11-18T00:06:19;97385.97;;;8.08;100.00
43364;BME280;40636;52.424;-1.948;2022-11-18T00:08:47;97389.78;;;8.07;100.00
43364;BME280;40636;52.424;-1.948;2022-11-18T00:11:19;97401.03;;;8.06;100.00
43364;BME280;40636;52.424;-1.948;2022-11-18T00:14:11;97391.44;;;8.08;100.00
43364;BME280;40636;52.424;-1.948;2022-11-18T00:19:17;97407.88;;;8.03;100.00
43364;BME280;40636;52.424;-1.948;2022-11-18T00:21:45;97409.00;;;8.02;100.00
43364;BME280;40636;52.424;-1.948;2022-11-18T00:24:11;97409.78;;;8.03;100.00
43364;BME280;40636;52.424;-1.948;2022-11-18T00:26:38;97415.56;;;8.01;100.00
43364;BME280;40636;52.424;-1.948;2022-11-18T00:29:05;97403.03;;;8.00;100.00
43364;BME280;40636;52.424;-1.948;2022-11-18T00:31:32;97408.69;;;8.04;100.00
43364;BME280;40636;52.424;-1.948;2022-11-18T00:33:58;97416.06;;;8.03;100.00
43364;BME280;40636;52.424;-1.948;2022-11-18T00:36:25;97423.97;;;8.05;100.00
43364;BME280;40636;52.424;-1.948;2022-11-18T00:38:52;97423.19;;;8.04;100.00
43364;BME280;40636;52.424;-1.948;2022-11-18T00:41:19;97420.72;;;8.03;100.00
43364;BME280;40636;52.424;-1.948;2022-11-18T00:43:45;97431.66;;;8.03;100.00
43364;BME280;40636;52.424;-1.948;2022-11-18T00:46:12;97424.25;;;8.03;100.00
43364;BME280;40636;52.424;-1.948;2022-11-18T00:48:39;97442.22;;;8.09;100.00
43364;BME280;40636;52.424;-1.948;2022-11-18T00:51:15;97446.06;;;8.08;100.00
43364;BME280;40636;52.424;-1.948;2022-11-18T00:53:43;97449.88;;;8.07;100.00
43364;BME280;40636;52.424;-1.948;2022-11-18T00:56:10;97453.72;;;8.06;100.00
43364;BME280;40636;52.424;-1.948;2022-11-18T00:58:37;97452.09;;;8.05;100.00
43364;BME280;40636;52.424;-1.948;2022-11-18T01:01:04;97455.34;;;8.07;100.00
43364;BME280;40636;52.424;-1.948;2022-11-18T01:03:31;97457.00;;;8.08;100.00
43364;BME280;40636;52.424;-1.948;2022-11-18T01:05:58;97464.06;;;8.09;100.00
43364;BME280;40636;52.424;-1.948;2022-11-18T01:08:25;97472.19;;;8.14;100.00
43364;BME280;40636;52.424;-1.948;2022-11-18T01:10:51;97473.38;;;8.08;100.00
43364;BME280;40636;52.424;-1.948;2022-11-18T01:13:20;97479.91;;;8.07;100.00
43364;BME280;40636;52.424;-1.948;2022-11-18T01:15:57;97479.66;;;8.09;100.00
43364;BME280;40636;52.424;-1.948;2022-11-18T01:18:29;97482.88;;;8.11;100.00
43364;BME280;40636;52.424;-1.948;2022-11-18T01:21:00;97484.94;;;8.19;100.00
43364;BME280;40636;52.424;-1.948;2022-11-18T01:23:27;97479.78;;;8.18;100.00
43364;BME280;40636;52.424;-1.948;2022-11-18T01:25:54;97490.19;;;8.16;100.00
43364;BME280;40636;52.424;-1.948;2022-11-18T01:28:21;97494.03;;;8.14;100.00
43364;BME280;40636;52.424;-1.948;2022-11-18T01:30:50;97492.34;;;8.19;100.00
43364;BME280;40636;52.424;-1.948;2022-11-18T01:33:17;97493.47;;;8.18;100.00
43364;BME280;40636;52.424;-1.948;2022-11-18T01:35:43;97502.72;;;8.17;100.00
43364;BME280;40636;52.424;-1.948;2022-11-18T01:38:12;97506.81;;;8.19;100.00
43364;BME280;40636;52.424;-1.948;2022-11-18T01:40:40;97510.34;;;8.20;100.00
43364;BME280;40636;52.424;-1.948;2022-11-18T01:43:16;97513.66;;;8.17;100.00
43364;BME280;40636;52.424;-1.948;2022-11-18T01:45:46;97520.16;;;8.21;100.00
43364;BME280;40636;52.424;-1.948;2022-11-18T01:48:26;97522.09;;;8.20;100.00
43364;BME280;40636;52.424;-1.948;2022-11-18T01:50:59;97521.28;;;8.20;100.00
43364;BME280;40636;52.424;-1.948;2022-11-18T01:53:32;97531.69;;;8.18;100.00
43364;BME280;40636;52.424;-1.948;2022-11-18T01:56:03;97534.44;;;8.18;100.00
43364;BME280;40636;52.424;-1.948;2022-11-18T01:58:45;97529.47;;;8.20;100.00
43364;BME280;40636;52.424;-1.948;2022-11-18T02:01:28;97539.91;;;8.18;100.00
43364;BME280;40636;52.424;-1.948;2022-11-18T02:03:55;97542.41;;;8.14;100.00
43364;BME280;40636;52.424;-1.948;2022-11-18T02:06:22;97552.72;;;8.17;100.00
43364;BME280;40636;52.424;-1.948;2022-11-18T02:08:50;97557.97;;;8.13;100.00
43364;BME280;40636;52.424;-1.948;2022-11-18T02:11:17;97561.78;;;8.12;100.00
43364;BME280;40636;52.424;-1.948;2022-11-18T02:14:06;97555.75;;;8.16;100.00
43364;BME280;40636;52.424;-1.948;2022-11-18T02:19:19;97570.28;;;8.11;100.00
43364;BME280;40636;52.424;-1.948;2022-11-18T02:30:31;97583.66;;;8.12;100.00
43364;BME280;40636;52.424;-1.948;2022-11-18T02:33:06;97583.13;;;8.10;100.00
43364;BME280;40636;52.424;-1.948;2022-11-18T02:35:44;97578.78;;;8.09;100.00
43364;BME280;40636;52.424;-1.948;2022-11-18T02:38:28;97584.25;;;8.09;100.00
43364;BME280;40636;52.424;-1.948;2022-11-18T02:41:08;97593.75;;;8.12;100.00
43364;BME280;40636;52.424;-1.948;2022-11-18T02:43:39;97598.78;;;8.05;100.00
43364;BME280;40636;52.424;-1.948;2022-11-18T02:46:12;97599.59;;;8.05;100.00
43364;BME280;40636;52.424;-1.948;2022-11-18T02:48:44;97600.97;;;8.03;100.00
43364;BME280;40636;52.424;-1.948;2022-11-18T02:51:15;97599.66;;;8.00;100.00
43364;BME280;40636;52.424;-1.948;2022-11-18T02:53:44;97606.75;;;8.01;100.00
43364;BME280;40636;52.424;-1.948;2022-11-18T02:56:14;97610.59;;;8.00;100.00
43364;BME280;40636;52.424;-1.948;2022-11-18T02:58:42;97606.75;;;8.01;100.00
43364;BME280;40636;52.424;-1.948;2022-11-18T03:01:17;97608.38;;;8.02;100.00
43364;BME280;40636;52.424;-1.948;2022-11-18T03:03:45;97615.75;;;8.02;100.00
43364;BME280;40636;52.424;-1.948;2022-11-18T03:11:41;97615.25;;;8.00;100.00
43364;BME280;40636;52.424;-1.948;2022-11-18T03:20:08;97630.03;;;7.94;100.00
43364;BME280;40636;52.424;-1.948;2022-11-18T03:22:41;97637.09;;;8.00;100.00
43364;BME280;40636;52.424;-1.948;2022-11-18T03:25:19;97632.50;;;7.95;100.00
43364;BME280;40636;52.424;-1.948;2022-11-18T03:27:54;97642.88;;;7.93;100.00
43364;BME280;40636;52.424;-1.948;2022-11-18T03:30:23;97635.50;;;7.94;100.00
43364;BME280;40636;52.424;-1.948;2022-11-18T03:32:56;97645.84;;;7.97;100.00
43364;BME280;40636;52.424;-1.948;2022-11-18T03:35:26;97642.81;;;7.98;100.00
43364;BME280;40636;52.424;-1.948;2022-11-18T03:38:07;97652.63;;;7.99;100.00
43364;BME280;40636;52.424;-1.948;2022-11-18T03:40:38;97661.94;;;7.98;100.00
43364;BME280;40636;52.424;-1.948;2022-11-18T03:43:12;97659.19;;;7.98;100.00
43364;BME280;40636;52.424;-1.948;2022-11-18T03:45:53;97665.22;;;8.00;100.00
43364;BME280;40636;52.424;-1.948;2022-11-18T03:48:30;97660.81;;;7.99;100.00
43364;BME280;40636;52.424;-1.948;2022-11-18T03:51:05;97681.59;;;8.00;100.00
43364;BME280;40636;52.424;-1.948;2022-11-18T03:53:38;97678.06;;;8.00;100.00
43364;BME280;40636;52.424;-1.948;2022-11-18T03:56:11;97669.25;;;8.03;100.00
43364;BME280;40636;52.424;-1.948;2022-11-18T03:59:10;97675.06;;;7.96;100.00
43364;BME280;40636;52.424;-1.948;2022-11-18T04:01:46;97684.09;;;7.97;100.00
43364;BME280;40636;52.424;-1.948;2022-11-18T04:04:14;97679.72;;;7.96;100.00
43364;BME280;40636;52.424;-1.948;2022-11-18T04:06:45;97689.25;;;7.98;100.00
43364;BME280;40636;52.424;-1.948;2022-11-18T04:09:20;97700.72;;;8.00;100.00
43364;BME280;40636;52.424;-1.948;2022-11-18T04:11:54;97705.06;;;8.01;100.00
43364;BME280;40636;52.424;-1.948;2022-11-18T04:14:35;97705.56;;;8.03;100.00
43364;BME280;40636;52.424;-1.948;2022-11-18T04:17:19;97714.81;;;8.07;100.00
43364;BME280;40636;52.424;-1.948;2022-11-18T04:19:46;97703.91;;;8.07;100.00
43364;BME280;40636;52.424;-1.948;2022-11-18T04:22:13;97707.75;;;8.06;100.00
43364;BME280;40636;52.424;-1.948;2022-11-18T04:24:40;97713.19;;;8.06;100.00
43364;BME280;40636;52.424;-1.948;2022-11-18T04:27:07;97708.72;;;8.16;100.00
43364;BME280;40636;52.424;-1.948;2022-11-18T04:29:34;97717.78;;;8.11;100.00
43364;BME280;40636;52.424;-1.948;2022-11-18T04:32:01;97721.06;;;8.13;100.00
43364;BME280;40636;52.424;-1.948;2022-11-18T04:34:28;97728.47;;;8.07;100.00
43364;BME280;40636;52.424;-1.948;2022-11-18T04:36:56;97730.97;;;8.04;100.00
43364;BME280;40636;52.424;-1.948;2022-11-18T04:39:23;97731.81;;;8.04;100.00
43364;BME280;40636;52.424;-1.948;2022-11-18T04:41:50;97737.53;;;8.03;100.00
43364;BME280;40636;52.424;-1.948;2022-11-18T04:44:31;97745.47;;;8.04;100.00
43364;BME280;40636;52.424;-1.948;2022-11-18T04:47:02;97750.94;;;8.04;100.00
43364;BME280;40636;52.424;-1.948;2022-11-18T04:49:30;97752.50;;;8.10;100.00
43364;BME280;40636;52.424;-1.948;2022-11-18T04:51:57;97761.22;;;8.12;100.00
43364;BME280;40636;52.424;-1.948;2022-11-18T04:54:25;97757.66;;;8.12;100.00
43364;BME280;40636;52.424;-1.948;2022-11-18T04:56:53;97758.78;;;8.11;100.00
43364;BME280;40636;52.424;-1.948;2022-11-18T04:59:25;97760.75;;;8.05;100.00
43364;BME280;40636;52.424;-1.948;2022-11-18T05:01:53;97772.78;;;8.04;100.00
43364;BME280;40636;52.424;-1.948;2022-11-18T05:04:22;97766.72;;;8.07;100.00
43364;BME280;40636;52.424;-1.948;2022-11-18T05:06:50;97771.94;;;8.04;100.00
43364;BME280;40636;52.424;-1.948;2022-11-18T05:09:18;97778.25;;;8.04;100.00
43364;BME280;40636;52.424;-1.948;2022-11-18T05:11:46;97780.13;;;8.09;100.00
43364;BME280;40636;52.424;-1.948;2022-11-18T05:14:31;97787.50;;;8.03;100.00
43364;BME280;40636;52.424;-1.948;2022-11-18T05:17:00;97790.78;;;8.05;100.00
43364;BME280;40636;52.424;-1.948;2022-11-18T05:19:30;97783.16;;;8.02;100.00
43364;BME280;40636;52.424;-1.948;2022-11-18T05:21:58;97787.06;;;7.96;100.00
43364;BME280;40636;52.424;-1.948;2022-11-18T05:24:25;97792.50;;;7.96;100.00
43364;BME280;40636;52.424;-1.948;2022-11-18T05:26:53;97794.13;;;7.97;100.00
43364;BME280;40636;52.424;-1.948;2022-11-18T05:29:21;97788.63;;;8.02;100.00
43364;BME280;40636;52.424;-1.948;2022-11-18T05:31:48;97800.09;;;8.04;100.00
43364;BME280;40636;52.424;-1.948;2022-11-18T05:34:15;97805.56;;;8.04;100.00
43364;BME280;40636;52.424;-1.948;2022-11-18T05:36:42;97809.38;;;8.03;100.00
43364;BME280;40636;52.424;-1.948;2022-11-18T05:39:09;97812.34;;;8.07;100.00
43364;BME280;40636;52.424;-1.948;2022-11-18T05:41:35;97818.63;;;8.07;100.00
43364;BME280;40636;52.424;-1.948;2022-11-18T05:44:21;97815.88;;;8.07;100.00
43364;BME280;40636;52.424;-1.948;2022-11-18T05:46:48;97820.78;;;8.10;100.00
43364;BME280;40636;52.424;-1.948;2022-11-18T05:49:16;97821.31;;;8.12;100.00
43364;BME280;40636;52.424;-1.948;2022-11-18T05:51:43;97832.47;;;8.16;100.00
43364;BME280;40636;52.424;-1.948;2022-11-18T05:54:12;97822.91;;;8.19;100.00
43364;BME280;40636;52.424;-1.948;2022-11-18T05:56:41;97831.06;;;8.24;100.00
43364;BME280;40636;52.424;-1.948;2022-11-18T05:59:12;97838.72;;;8.22;100.00
43364;BME280;40636;52.424;-1.948;2022-11-18T06:01:46;97836.81;;;8.22;100.00
43364;BME280;40636;52.424;-1.948;2022-11-18T06:06:49;97843.66;;;8.20;100.00
43364;BME280;40636;52.424;-1.948;2022-11-18T06:09:21;97855.09;;;8.22;100.00
43364;BME280;40636;52.424;-1.948;2022-11-18T06:11:52;97860.00;;;8.25;100.00
43364;BME280;40636;52.424;-1.948;2022-11-18T06:14:36;97859.75;;;8.21;100.00
43364;BME280;40636;52.424;-1.948;2022-11-18T06:17:09;97869.06;;;8.20;100.00
43364;BME280;40636;52.424;-1.948;2022-11-18T06:19:38;97865.81;;;8.18;100.00
43364;BME280;40636;52.424;-1.948;2022-11-18T06:22:06;97877.56;;;8.19;100.00
43364;BME280;40636;52.424;-1.948;2022-11-18T06:24:34;97880.78;;;8.21;100.00
43364;BME280;40636;52.424;-1.948;2022-11-18T06:27:01;97883.81;;;8.19;100.00
43364;BME280;40636;52.424;-1.948;2022-11-18T06:29:29;97884.94;;;8.18;100.00
43364;BME280;40636;52.424;-1.948;2022-11-18T06:31:56;97882.47;;;8.17;100.00
43364;BME280;40636;52.424;-1.948;2022-11-18T06:34:23;97896.41;;;8.15;100.00
43364;BME280;40636;52.424;-1.948;2022-11-18T06:36:50;97898.03;;;8.16;100.00
43364;BME280;40636;52.424;-1.948;2022-11-18T06:39:17;97903.00;;;8.14;100.00
43364;BME280;40636;52.424;-1.948;2022-11-18T06:41:44;97901.84;;;8.20;100.00
43364;BME280;40636;52.424;-1.948;2022-11-18T06:44:12;97908.72;;;8.18;100.00
43364;BME280;40636;52.424;-1.948;2022-11-18T06:46:39;97907.66;;;8.13;100.00
43364;BME280;40636;52.424;-1.948;2022-11-18T06:49:22;97908.72;;;8.12;100.00
43364;BME280;40636;52.424;-1.948;2022-11-18T06:51:51;97913.66;;;8.10;100.00
43364;BME280;40636;52.424;-1.948;2022-11-18T06:54:18;97910.97;;;8.05;100.00
43364;BME280;40636;52.424;-1.948;2022-11-18T06:56:45;97920.78;;;8.06;100.00
43364;BME280;40636;52.424;-1.948;2022-11-18T06:59:12;97931.75;;;8.01;100.00
43364;BME280;40636;52.424;-1.948;2022-11-18T07:01:40;97929.63;;;7.93;100.00
43364;BME280;40636;52.424;-1.948;2022-11-18T07:04:08;97938.91;;;7.92;100.00
43364;BME280;40636;52.424;-1.948;2022-11-18T07:06:35;97952.28;;;7.94;100.00
43364;BME280;40636;52.424;-1.948;2022-11-18T07:09:05;97946.84;;;7.88;100.00
43364;BME280;40636;52.424;-1.948;2022-11-18T07:11:32;97953.72;;;7.86;100.00
43364;BME280;40636;52.424;-1.948;2022-11-18T07:14:00;97964.34;;;7.87;100.00
43364;BME280;40636;52.424;-1.948;2022-11-18T07:16:27;97978.81;;;7.88;100.00
43364;BME280;40636;52.424;-1.948;2022-11-18T07:18:54;97972.25;;;7.89;100.00
43364;BME280;40636;52.424;-1.948;2022-11-18T07:21:26;97992.44;;;7.93;100.00
43364;BME280;40636;52.424;-1.948;2022-11-18T07:23:54;97987.00;;;7.88;100.00
43364;BME280;40636;52.424;-1.948;2022-11-18T07:26:22;98005.84;;;7.89;100.00
43364;BME280;40636;52.424;-1.948;2022-11-18T07:28:49;98001.19;;;7.90;100.00
43364;BME280;40636;52.424;-1.948;2022-11-18T07:31:18;98008.56;;;7.89;100.00
43364;BME280;40636;52.424;-1.948;2022-11-18T07:33:46;98017.03;;;7.88;100.00
43364;BME280;40636;52.424;-1.948;2022-11-18T07:36:16;98014.31;;;7.88;100.00
43364;BME280;40636;52.424;-1.948;2022-11-18T07:38:43;98023.63;;;7.87;100.00
43364;BME280;40636;52.424;-1.948;2022-11-18T07:41:20;98020.31;;;7.85;100.00
43364;BME280;40636;52.424;-1.948;2022-11-18T07:43:48;98039.72;;;7.83;100.00
43364;BME280;40636;52.424;-1.948;2022-11-18T07:46:19;98036.47;;;7.81;100.00
43364;BME280;40636;52.424;-1.948;2022-11-18T07:48:49;98043.31;;;7.79;100.00
43364;BME280;40636;52.424;-1.948;2022-11-18T07:51:19;98052.59;;;7.78;100.00
43364;BME280;40636;52.424;-1.948;2022-11-18T07:53:47;98063.81;;;7.71;100.00
43364;BME280;40636;52.424;-1.948;2022-11-18T07:56:14;98053.97;;;7.70;100.00
43364;BME280;40636;52.424;-1.948;2022-11-18T07:58:42;98062.97;;;7.71;100.00
43364;BME280;40636;52.424;-1.948;2022-11-18T08:01:20;98070.09;;;7.67;100.00
43364;BME280;40636;52.424;-1.948;2022-11-18T08:03:47;98067.09;;;7.68;100.00
43364;BME280;40636;52.424;-1.948;2022-11-18T08:06:16;98069.03;;;7.68;100.00
43364;BME280;40636;52.424;-1.948;2022-11-18T08:08:44;98082.66;;;7.68;100.00
43364;BME280;40636;52.424;-1.948;2022-11-18T08:11:13;98085.38;;;7.62;100.00
43364;BME280;40636;52.424;-1.948;2022-11-18T08:13:47;98096.31;;;7.57;100.00
43364;BME280;40636;52.424;-1.948;2022-11-18T08:16:19;98092.25;;;7.60;100.00
43364;BME280;40636;52.424;-1.948;2022-11-18T08:18:48;98104.50;;;7.62;100.00
43364;BME280;40636;52.424;-1.948;2022-11-18T08:21:17;98101.50;;;7.64;100.00
43364;BME280;40636;52.424;-1.948;2022-11-18T08:23:52;98108.06;;;7.68;100.00
43364;BME280;40636;52.424;-1.948;2022-11-18T08:26:21;98116.47;;;7.72;100.00
43364;BME280;40636;52.424;-1.948;2022-11-18T08:28:49;98115.66;;;7.76;100.00
43364;BME280;40636;52.424;-1.948;2022-11-18T08:31:22;98116.50;;;7.77;100.00
43364;BME280;40636;52.424;-1.948;2022-11-18T08:33:57;98126.84;;;7.80;100.00
43364;BME280;40636;52.424;-1.948;2022-11-18T08:36:26;98124.66;;;7.82;100.00
43364;BME280;40636;52.424;-1.948;2022-11-18T08:38:55;98128.47;;;7.81;100.00
43364;BME280;40636;52.424;-1.948;2022-11-18T08:41:31;98129.06;;;7.73;100.00
43364;BME280;40636;52.424;-1.948;2022-11-18T08:43:59;98135.34;;;7.73;100.00
43364;BME280;40636;52.424;-1.948;2022-11-18T08:46:27;98133.44;;;7.74;100.00
43364;BME280;40636;52.424;-1.948;2022-11-18T08:48:56;98145.69;;;7.71;100.00
43364;BME280;40636;52.424;-1.948;2022-11-18T08:51:24;98152.00;;;7.67;100.00
43364;BME280;40636;52.424;-1.948;2022-11-18T08:53:51;98153.06;;;7.71;100.00
43364;BME280;40636;52.424;-1.948;2022-11-18T08:56:19;98157.97;;;7.79;100.00
43364;BME280;40636;52.424;-1.948;2022-11-18T08:58:47;98166.69;;;7.81;100.00
43364;BME280;40636;52.424;-1.948;2022-11-18T09:01:14;98163.16;;;7.80;100.00
43364;BME280;40636;52.424;-1.948;2022-11-18T09:03:41;98168.38;;;7.82;100.00
43364;BME280;40636;52.424;-1.948;2022-11-18T09:06:10;98170.81;;;7.83;100.00
43364;BME280;40636;52.424;-1.948;2022-11-18T09:08:38;98172.72;;;7.88;100.00
43364;BME280;40636;52.424;-1.948;2022-11-18T09:11:11;98181.44;;;7.90;100.00
43364;BME280;40636;52.424;-1.948;2022-11-18T09:13:38;98181.97;;;7.92;100.00
43364;BME280;40636;52.424;-1.948;2022-11-18T09:16:28;98192.38;;;7.95;100.00
43364;BME280;40636;52.424;-1.948;2022-11-18T09:22:41;98201.63;;;7.99;100.00
43364;BME280;40636;52.424;-1.948;2022-11-18T09:25:09;98214.72;;;8.02;100.00
43364;BME280;40636;52.424;-1.948;2022-11-18T09:27:36;98210.09;;;8.03;100.00
43364;BME280;40636;52.424;-1.948;2022-11-18T09:30:04;98213.91;;;8.07;100.00
43364;BME280;40636;52.424;-1.948;2022-11-18T09:32:32;98223.19;;;8.06;100.00
43364;BME280;40636;52.424;-1.948;2022-11-18T09:34:59;98221.28;;;8.01;100.00
43364;BME280;40636;52.424;-1.948;2022-11-18T09:37:26;98226.22;;;8.04;100.00
43364;BME280;40636;52.424;-1.948;2022-11-18T09:39:53;98239.06;;;8.09;100.00
43364;BME280;40636;52.424;-1.948;2022-11-18T09:43:08;98231.09;;;8.12;100.00
43364;BME280;40636;52.424;-1.948;2022-11-18T09:45:34;98238.75;;;8.16;100.00
43364;BME280;40636;52.424;-1.948;2022-11-18T09:48:17;98239.84;;;8.20;100.00
43364;BME280;40636;52.424;-1.948;2022-11-18T09:50:45;98239.53;;;8.21;100.00
43364;BME280;40636;52.424;-1.948;2022-11-18T09:53:24;98244.22;;;8.16;100.00
43364;BME280;40636;52.424;-1.948;2022-11-18T09:55:52;98252.69;;;8.19;100.00
43364;BME280;40636;52.424;-1.948;2022-11-18T09:58:31;98249.66;;;8.21;100.00
43364;BME280;40636;52.424;-1.948;2022-11-18T10:00:59;98256.75;;;8.22;100.00
43364;BME280;40636;52.424;-1.948;2022-11-18T10:03:30;98258.13;;;8.24;100.00
43364;BME280;40636;52.424;-1.948;2022-11-18T10:11:44;98274.78;;;8.38;100.00
43364;BME280;40636;52.424;-1.948;2022-11-18T10:24:55;98288.41;;;8.53;100.00
43364;BME280;40636;52.424;-1.948;2022-11-18T10:27:37;98297.44;;;8.54;100.00
43364;BME280;40636;52.424;-1.948;2022-11-18T10:30:12;98302.63;;;8.60;100.00
43364;BME280;40636;52.424;-1.948;2022-11-18T10:32:59;98310.28;;;8.63;100.00
43364;BME280;40636;52.424;-1.948;2022-11-18T10:35:36;98310.50;;;8.67;100.00
43364;BME280;40636;52.424;-1.948;2022-11-18T10:40:47;98317.03;;;8.76;100.00
43364;BME280;40636;52.424;-1.948;2022-11-18T10:46:26;98325.25;;;8.86;100.00
43364;BME280;40636;52.424;-1.948;2022-11-18T10:51:43;98322.19;;;8.93;100.00
43364;BME280;40636;52.424;-1.948;2022-11-18T10:54:16;98325.75;;;8.94;100.00
43364;BME280;40636;52.424;-1.948;2022-11-18T10:56:46;98324.63;;;9.00;100.00
43364;BME280;40636;52.424;-1.948;2022-11-18T10:59:39;98332.81;;;9.05;100.00
43364;BME280;40636;52.424;-1.948;2022-11-18T11:02:14;98329.25;;;9.09;100.00
43364;BME280;40636;52.424;-1.948;2022-11-18T11:04:44;98334.13;;;9.12;100.00
43364;BME280;40636;52.424;-1.948;2022-11-18T11:07:25;98336.31;;;9.15;100.00
43364;BME280;40636;52.424;-1.948;2022-11-18T11:10:01;98344.78;;;9.19;100.00
43364;BME280;40636;52.424;-1.948;2022-11-18T11:12:30;98342.84;;;9.25;100.00
43364;BME280;40636;52.424;-1.948;2022-11-18T11:15:04;98352.66;;;9.31;100.00
43364;BME280;40636;52.424;-1.948;2022-11-18T11:17:44;98355.44;;;9.26;100.00
43364;BME280;40636;52.424;-1.948;2022-11-18T11:20:19;98354.34;;;9.27;100.00
43364;BME280;40636;52.424;-1.948;2022-11-18T11:22:47;98355.97;;;9.28;100.00
43364;BME280;40636;52.424;-1.948;2022-11-18T11:25:22;98363.06;;;9.34;100.00
43364;BME280;40636;52.424;-1.948;2022-11-18T11:31:15;98364.56;;;9.60;100.00
43364;BME280;40636;52.424;-1.948;2022-11-18T11:33:57;98370.50;;;9.73;100.00
43364;BME280;40636;52.424;-1.948;2022-11-18T11:45:27;98386.47;;;10.05;100.00
43364;BME280;40636;52.424;-1.948;2022-11-18T11:48:23;98380.13;;;10.09;100.00
43364;BME280;40636;52.424;-1.948;2022-11-18T11:50:58;98384.44;;;10.15;100.00
43364;BME280;40636;52.424;-1.948;2022-11-18T11:54:08;98393.19;;;10.23;100.00
43364;BME280;40636;52.424;-1.948;2022-11-18T11:59:47;98388.25;;;10.25;100.00
43364;BME280;40636;52.424;-1.948;2022-11-18T12:07:46;98396.91;;;10.37;100.00
43364;BME280;40636;52.424;-1.948;2022-11-18T12:13:08;98400.72;;;10.41;100.00
43364;BME280;40636;52.424;-1.948;2022-11-18T12:20:55;98418.25;;;10.40;100.00
43364;BME280;40636;52.424;-1.948;2022-11-18T12:28:41;98422.16;;;10.34;100.00
43364;BME280;40636;52.424;-1.948;2022-11-18T12:33:44;98432.34;;;10.28;100.00
43364;BME280;40636;52.424;-1.948;2022-11-18T12:36:31;98427.69;;;10.24;100.00
43364;BME280;40636;52.424;-1.948;2022-11-18T12:41:54;98443.59;;;10.22;100.00
43364;BME280;40636;52.424;-1.948;2022-11-18T12:44:41;98445.31;;;10.18;100.00
43364;BME280;40636;52.424;-1.948;2022-11-18T12:55:00;98452.44;;;10.13;100.00
43364;BME280;40636;52.424;-1.948;2022-11-18T12:57:32;98459.28;;;10.16;100.00
43364;BME280;40636;52.424;-1.948;2022-11-18T13:00:38;98467.44;;;10.26;100.00
43364;BME280;40636;52.424;-1.948;2022-11-18T13:03:25;98474.25;;;10.34;100.00
43364;BME280;40636;52.424;-1.948;2022-11-18T13:05:58;98478.13;;;10.33;100.00
43364;BME280;40636;52.424;-1.948;2022-11-18T13:08:28;98472.06;;;10.31;100.00
43364;BME280;40636;52.424;-1.948;2022-11-18T13:10:59;98477.31;;;10.32;100.00
43364;BME280;40636;52.424;-1.948;2022-11-18T13:13:50;98476.72;;;10.35;100.00
43364;BME280;40636;52.424;-1.948;2022-11-18T13:16:37;98484.94;;;10.35;100.00
43364;BME280;40636;52.424;-1.948;2022-11-18T13:19:24;98484.66;;;10.37;100.00
43364;BME280;40636;52.424;-1.948;2022-11-18T13:21:56;98495.03;;;10.40;100.00
43364;BME280;40636;52.424;-1.948;2022-11-18T13:24:49;98500.06;;;10.33;100.00
43364;BME280;40636;52.424;-1.948;2022-11-18T13:30:12;98500.53;;;10.40;100.00
43364;BME280;40636;52.424;-1.948;2022-11-18T13:32:45;98504.91;;;10.46;100.00
43364;BME280;40636;52.424;-1.948;2022-11-18T13:35:17;98507.34;;;10.48;100.00
43364;BME280;40636;52.424;-1.948;2022-11-18T13:37:57;98515.88;;;10.46;100.00
43364;BME280;40636;52.424;-1.948;2022-11-18T13:40:27;98521.34;;;10.46;100.00
43364;BME280;40636;52.424;-1.948;2022-11-18T13:42:55;98516.69;;;10.47;100.00
43364;BME280;40636;52.424;-1.948;2022-11-18T13:45:26;98527.94;;;10.45;100.00
43364;BME280;40636;52.424;-1.948;2022-11-18T13:48:04;98527.66;;;10.47;100.00
43364;BME280;40636;52.424;-1.948;2022-11-18T13:50:45;98520.28;;;10.42;100.00
43364;BME280;40636;52.424;-1.948;2022-11-18T13:56:11;98534.03;;;10.37;100.00
43364;BME280;40636;52.424;-1.948;2022-11-18T14:01:37;98545.56;;;10.34;100.00
43364;BME280;40636;52.424;-1.948;2022-11-18T14:04:20;98548.25;;;10.39;100.00
43364;BME280;40636;52.424;-1.948;2022-11-18T14:06:48;98554.59;;;10.34;100.00
43364;BME280;40636;52.424;-1.948;2022-11-18T14:09:25;98556.00;;;10.32;100.00
43364;BME280;40636;52.424;-1.948;2022-11-18T14:12:06;98556.56;;;10.29;100.00
43364;BME280;40636;52.424;-1.948;2022-11-18T14:14:48;98569.19;;;10.25;100.00
43364;BME280;40636;52.424;-1.948;2022-11-18T14:17:19;98567.25;;;10.20;100.00
43364;BME280;40636;52.424;-1.948;2022-11-18T14:19:56;98568.66;;;10.12;100.00
43364;BME280;40636;52.424;-1.948;2022-11-18T14:22:28;98570.91;;;10.05;100.00
43364;BME280;40636;52.424;-1.948;2022-11-18T14:25:01;98586.78;;;10.03;100.00
43364;BME280;40636;52.424;-1.948;2022-11-18T14:30:26;98587.91;;;10.02;100.00
43364;BME280;40636;52.424;-1.948;2022-11-18T14:35:40;98601.91;;;9.96;100.00
43364;BME280;40636;52.424;-1.948;2022-11-18T14:38:17;98598.34;;;9.90;100.00
43364;BME280;40636;52.424;-1.948;2022-11-18T14:41:07;98604.41;;;9.87;100.00
43364;BME280;40636;52.424;-1.948;2022-11-18T14:43:34;98611.53;;;9.83;100.00
43364;BME280;40636;52.424;-1.948;2022-11-18T14:46:11;98609.31;;;9.85;100.00
43364;BME280;40636;52.424;-1.948;2022-11-18T14:48:41;98603.59;;;9.86;100.00
43364;BME280;40636;52.424;-1.948;2022-11-18T14:51:14;98615.38;;;9.82;100.00
43364;BME280;40636;52.424;-1.948;2022-11-18T14:53:42;98623.34;;;9.78;100.00
43364;BME280;40636;52.424;-1.948;2022-11-18T14:56:19;98628.53;;;9.80;100.00
43364;BME280;40636;52.424;-1.948;2022-11-18T14:58:49;98640.59;;;9.79;100.00
43364;BME280;40636;52.424;-1.948;2022-11-18T15:01:16;98642.78;;;9.72;100.00
43364;BME280;40636;52.424;-1.948;2022-11-18T15:03:44;98651.00;;;9.72;100.00
43364;BME280;40636;52.424;-1.948;2022-11-18T15:06:13;98642.25;;;9.70;100.00
43364;BME280;40636;52.424;-1.948;2022-11-18T15:08:44;98643.63;;;9.77;100.00
43364;BME280;40636;52.424;-1.948;2022-11-18T15:11:12;98651.00;;;9.66;100.00